Aviation Digital Data Service (ADDS)

Output produced by METARs form (2355 UTC 21 August 2014)
found at http://aviationweather.gov/adds/metars/
 
KHPN 212322Z 2200/2224 14006KT P6SM VCSH FEW040 BKN080 
     TEMPO 2201/2203 2SM TSRA BKN015CB 
     FM220800 08006KT 6SM BR BKN015 
     TEMPO 2210/2213 4SM BR 
     FM221500 10007KT P6SM BKN025 OVC040 AMD NOT SKED